Time;durP1;ratioP1;P1;durP2;ratioP2;P2;SDS_P1;SDS_P2;PMS_P1;PMS_P2;Temp;Humidity;BMP_temperature;BMP_pressure;BME280_temperature;BME280_humidity;BME280_pressure;Samples;Min_cycle;Max_cycle;Signal;HPM_P1;HPM_P2
2023/08/30 00:01:29;;;;;;;1.98;0.95;;;15.50;99.90;;;;;;4115018;28;20951;-85
2023/08/30 00:03:30;;;;;;;2.67;1.00;;;15.50;99.90;;;;;;4130636;28;20201;-85
2023/08/30 00:05:31;;;;;;;1.25;0.82;;;15.50;99.90;;;;;;4131055;28;20248;-83
2023/08/30 00:07:31;;;;;;;2.30;1.10;;;15.40;99.90;;;;;;4115157;28;20178;-83
2023/08/30 00:09:32;;;;;;;2.10;1.45;;;15.30;99.90;;;;;;4131149;28;20173;-84
2023/08/30 00:11:33;;;;;;;2.47;1.08;;;15.30;99.90;;;;;;4131909;28;20194;-83
2023/08/30 00:13:34;;;;;;;2.20;1.23;;;15.30;99.90;;;;;;4114660;28;20605;-85
2023/08/30 00:15:34;;;;;;;1.65;0.95;;;15.30;99.90;;;;;;4114655;28;20624;-84
2023/08/30 00:17:35;;;;;;;1.42;0.80;;;15.30;99.90;;;;;;4132187;28;20174;-84
2023/08/30 00:19:36;;;;;;;1.00;0.75;;;15.20;99.90;;;;;;4114947;28;20173;-83
2023/08/30 00:21:37;;;;;;;1.88;1.02;;;15.20;99.90;;;;;;4130955;28;20702;-83
2023/08/30 00:23:38;;;;;;;3.08;0.80;;;15.10;99.90;;;;;;4115097;28;20257;-83
2023/08/30 00:25:38;;;;;;;2.35;1.20;;;15.10;99.90;;;;;;4130841;28;20213;-84
2023/08/30 00:27:39;;;;;;;2.20;1.05;;;15.10;99.90;;;;;;4131471;28;20193;-83
2023/08/30 00:29:40;;;;;;;2.97;1.15;;;15.10;99.90;;;;;;4114378;28;20189;-83
2023/08/30 00:31:41;;;;;;;1.45;0.95;;;15.10;99.90;;;;;;4131681;28;20240;-86
2023/08/30 00:33:42;;;;;;;2.60;1.00;;;15.10;99.90;;;;;;4114947;28;20190;-85
2023/08/30 00:35:42;;;;;;;1.90;1.02;;;15.00;99.90;;;;;;4130730;28;20169;-83
2023/08/30 00:37:44;;;;;;;3.80;1.25;;;15.00;99.90;;;;;;4114847;28;20225;-85
2023/08/30 00:39:45;;;;;;;1.67;0.90;;;15.00;99.90;;;;;;4114543;28;20178;-83
2023/08/30 00:41:46;;;;;;;2.50;1.50;;;15.00;99.90;;;;;;4115271;28;20201;-83
2023/08/30 00:43:47;;;;;;;1.60;1.00;;;14.90;99.90;;;;;;4130449;28;20174;-84
2023/08/30 00:45:48;;;;;;;2.17;1.08;;;14.80;99.90;;;;;;4130380;28;20263;-85
2023/08/30 00:47:49;;;;;;;1.67;1.10;;;14.80;99.90;;;;;;4130489;28;20180;-84
2023/08/30 00:49:50;;;;;;;1.10;0.85;;;14.70;99.90;;;;;;4130274;28;20644;-83
2023/08/30 00:51:52;;;;;;;1.48;0.80;;;14.60;99.90;;;;;;4130248;28;20189;-83
2023/08/30 00:53:55;;;;;;;3.20;1.20;;;14.70;99.90;;;;;;4130392;28;20661;-83
2023/08/30 00:55:56;;;;;;;1.85;0.80;;;14.70;99.90;;;;;;4130379;28;20201;-85
2023/08/30 00:57:56;;;;;;;1.27;0.95;;;14.60;99.90;;;;;;4114248;28;20533;-83
2023/08/30 00:59:58;;;;;;;2.50;1.20;;;14.70;99.90;;;;;;4114316;28;20174;-84
2023/08/30 01:02:00;;;;;;;2.50;1.40;;;14.70;99.90;;;;;;4114559;28;20201;-83
2023/08/30 01:04:02;;;;;;;2.35;1.40;;;14.80;99.90;;;;;;4131822;28;20659;-84
2023/08/30 01:06:02;;;;;;;3.00;1.30;;;14.90;99.90;;;;;;4114308;28;20245;-83
2023/08/30 01:08:04;;;;;;;2.53;1.13;;;14.80;99.90;;;;;;4130450;28;20189;-84
2023/08/30 01:10:06;;;;;;;2.38;1.42;;;14.80;99.90;;;;;;4130608;28;20196;-86
2023/08/30 01:12:17;;;;;;;2.95;0.95;;;14.70;99.90;;;;;;4130668;28;20590;-84
2023/08/30 01:14:40;;;;;;;2.85;1.33;;;14.70;99.90;;;;;;4131662;28;20308;-83
2023/08/30 01:16:42;;;;;;;2.45;1.40;;;14.80;99.90;;;;;;4130128;28;20194;-84
2023/08/30 01:18:43;;;;;;;3.22;1.40;;;14.70;99.90;;;;;;4130160;28;20212;-84
2023/08/30 01:20:46;;;;;;;2.38;1.25;;;14.60;99.90;;;;;;4130418;28;20253;-85
2023/08/30 01:22:59;;;;;;;2.78;1.20;;;14.60;99.90;;;;;;4130181;28;20213;-86
2023/08/30 01:25:23;;;;;;;2.25;1.13;;;14.60;99.90;;;;;;4130175;28;20243;-86
2023/08/30 01:27:25;;;;;;;2.08;0.80;;;14.50;99.90;;;;;;4121758;28;20236;-83
2023/08/30 01:29:27;;;;;;;1.83;1.25;;;14.50;99.90;;;;;;4117242;28;20186;-84
2023/08/30 01:31:33;;;;;;;1.63;1.00;;;14.40;99.90;;;;;;4133299;28;20185;-85
2023/08/30 01:33:36;;;;;;;2.15;1.13;;;14.30;99.90;;;;;;4133258;28;20176;-83
2023/08/30 01:35:40;;;;;;;2.30;1.00;;;14.40;99.90;;;;;;4133258;28;20177;-83
2023/08/30 01:37:42;;;;;;;2.78;1.33;;;14.40;99.90;;;;;;4133116;28;20528;-84
2023/08/30 01:39:43;;;;;;;3.20;1.58;;;14.40;99.90;;;;;;4133297;28;20188;-84
2023/08/30 01:41:44;;;;;;;1.58;0.82;;;14.30;99.90;;;;;;4116818;28;20293;-83
2023/08/30 01:43:47;;;;;;;2.47;0.85;;;14.40;99.90;;;;;;4117154;28;20257;-83
2023/08/30 01:45:48;;;;;;;2.00;1.20;;;14.40;99.90;;;;;;4117121;28;20221;-83
2023/08/30 01:47:49;;;;;;;2.38;0.98;;;14.50;99.90;;;;;;4117312;28;20272;-83
2023/08/30 01:49:52;;;;;;;2.40;1.10;;;14.50;99.90;;;;;;4134244;28;20180;-84
2023/08/30 01:51:53;;;;;;;3.40;1.10;;;14.40;99.90;;;;;;4117291;28;20190;-86
2023/08/30 01:53:57;;;;;;;2.63;1.00;;;14.40;99.90;;;;;;4133151;28;20181;-85
2023/08/30 01:55:58;;;;;;;1.17;0.88;;;14.40;99.90;;;;;;4116913;28;20214;-84
2023/08/30 01:57:59;;;;;;;2.95;1.45;;;14.40;99.90;;;;;;4133036;28;20174;-85
2023/08/30 02:00:01;;;;;;;3.65;1.20;;;14.30;99.90;;;;;;4116836;28;20230;-83
2023/08/30 02:02:03;;;;;;;2.47;1.33;;;14.40;99.90;;;;;;4116733;28;20199;-83
2023/08/30 02:04:04;;;;;;;2.00;1.17;;;14.30;99.90;;;;;;4132616;28;20209;-83
2023/08/30 02:06:14;;;;;;;2.63;1.20;;;14.30;99.90;;;;;;4116885;28;20759;-83
2023/08/30 02:08:17;;;;;;;1.65;0.90;;;14.30;99.90;;;;;;4116588;28;20571;-83
2023/08/30 02:10:24;;;;;;;2.20;0.98;;;14.40;99.90;;;;;;4133090;28;20174;-84
2023/08/30 02:12:34;;;;;;;8.23;1.55;;;14.40;99.90;;;;;;4133273;28;20189;-85
2023/08/30 02:14:38;;;;;;;2.50;1.33;;;14.40;99.90;;;;;;4134260;28;20701;-85
2023/08/30 02:16:40;;;;;;;2.10;0.88;;;14.40;99.90;;;;;;4116861;28;20181;-84
2023/08/30 02:18:42;;;;;;;1.55;0.95;;;14.40;99.90;;;;;;4132555;28;20247;-83
2023/08/30 02:20:43;;;;;;;1.50;1.00;;;14.40;99.90;;;;;;4116416;28;20229;-83
2023/08/30 02:22:43;;;;;;;3.20;1.00;;;14.50;99.90;;;;;;4132227;28;20683;-83
2023/08/30 02:24:44;;;;;;;3.50;1.10;;;14.50;99.90;;;;;;4116123;28;20198;-83
2023/08/30 02:26:45;;;;;;;1.73;1.02;;;14.40;99.90;;;;;;4132310;28;20189;-84
2023/08/30 02:28:47;;;;;;;1.98;1.00;;;14.50;99.90;;;;;;4116791;28;20645;-83
2023/08/30 02:30:48;;;;;;;1.20;0.98;;;14.40;99.90;;;;;;4133631;28;20173;-83
2023/08/30 02:32:51;;;;;;;6.82;1.40;;;14.50;99.90;;;;;;4134051;28;20217;-83
2023/08/30 02:34:53;;;;;;;2.10;1.05;;;14.50;99.90;;;;;;4133041;28;20172;-84
2023/08/30 02:36:55;;;;;;;2.40;1.27;;;14.50;99.90;;;;;;4116337;28;20163;-85
2023/08/30 02:38:58;;;;;;;2.75;1.08;;;14.60;99.90;;;;;;4131982;28;20185;-84
2023/08/30 02:40:59;;;;;;;1.92;1.15;;;14.60;99.90;;;;;;4133550;28;20180;-86
2023/08/30 02:42:59;;;;;;;1.70;1.13;;;14.60;99.90;;;;;;4115834;28;20597;-83
2023/08/30 02:45:00;;;;;;;3.17;1.10;;;14.80;99.90;;;;;;4131996;28;20248;-86
2023/08/30 02:47:01;;;;;;;2.67;1.27;;;14.80;99.90;;;;;;4132119;28;20181;-83
2023/08/30 02:49:02;;;;;;;1.02;0.70;;;14.80;99.90;;;;;;4115946;28;20217;-85
2023/08/30 02:51:03;;;;;;;1.75;0.98;;;14.80;99.90;;;;;;4115970;28;20188;-83
2023/08/30 02:53:08;;;;;;;2.08;0.85;;;14.90;99.90;;;;;;4116052;28;20288;-84
2023/08/30 02:55:08;;;;;;;1.45;0.95;;;14.90;99.90;;;;;;4116075;28;20170;-86
2023/08/30 02:57:09;;;;;;;2.08;1.15;;;14.90;99.90;;;;;;4131910;28;20209;-84
2023/08/30 02:59:11;;;;;;;2.08;1.20;;;15.00;99.90;;;;;;4116196;28;20181;-83
2023/08/30 03:01:12;;;;;;;1.80;1.10;;;15.10;99.90;;;;;;4132194;28;20173;-85
2023/08/30 03:03:13;;;;;;;4.35;1.77;;;15.10;99.90;;;;;;4132119;28;20170;-82
2023/08/30 03:05:13;;;;;;;2.22;1.20;;;15.10;99.90;;;;;;4131621;28;20688;-83
2023/08/30 03:07:14;;;;;;;1.38;0.90;;;15.10;99.90;;;;;;4115735;28;20684;-83
2023/08/30 03:09:15;;;;;;;1.95;1.02;;;15.20;99.90;;;;;;4131835;28;20602;-84
2023/08/30 03:11:16;;;;;;;5.47;1.33;;;15.10;99.90;;;;;;4132999;28;20547;-84
2023/08/30 03:13:21;;;;;;;2.65;1.23;;;15.00;99.90;;;;;;4116080;28;20639;-84
2023/08/30 03:15:23;;;;;;;2.35;1.08;;;15.00;99.90;;;;;;4131906;28;20165;-83
2023/08/30 03:17:24;;;;;;;2.08;1.23;;;15.10;99.90;;;;;;4131662;28;20169;-82
2023/08/30 03:19:25;;;;;;;1.92;0.85;;;15.00;99.90;;;;;;4115533;28;20606;-86
2023/08/30 03:21:26;;;;;;;2.28;1.27;;;15.00;99.90;;;;;;4115095;28;20269;-85
2023/08/30 03:23:26;;;;;;;2.30;1.08;;;15.10;99.90;;;;;;4115724;28;20213;-82
2023/08/30 03:25:30;;;;;;;3.00;1.45;;;15.30;99.90;;;;;;4115308;28;20209;-86
2023/08/30 03:27:33;;;;;;;2.63;1.00;;;15.40;99.90;;;;;;4147608;28;20259;-83
2023/08/30 03:29:33;;;;;;;3.10;1.23;;;15.20;99.90;;;;;;4131352;28;20267;-83
2023/08/30 03:31:34;;;;;;;2.00;1.05;;;15.10;99.90;;;;;;4147472;28;20201;-86
2023/08/30 03:33:36;;;;;;;2.38;1.10;;;15.00;99.90;;;;;;4115722;28;20174;-83
2023/08/30 03:35:37;;;;;;;2.03;1.05;;;14.90;99.90;;;;;;4131752;28;20173;-87
2023/08/30 03:37:38;;;;;;;1.38;1.05;;;14.80;99.90;;;;;;4131552;28;20722;-83
2023/08/30 03:39:38;;;;;;;1.67;1.10;;;14.90;99.90;;;;;;4131705;28;20612;-85
2023/08/30 03:41:39;;;;;;;3.83;1.00;;;15.00;99.90;;;;;;4114925;28;20189;-87
2023/08/30 03:43:40;;;;;;;2.47;1.30;;;14.90;99.90;;;;;;4115051;28;20185;-83
2023/08/30 03:45:44;;;;;;;3.47;1.40;;;14.90;99.90;;;;;;4131555;28;20240;-83
2023/08/30 03:47:44;;;;;;;1.85;0.93;;;14.80;99.90;;;;;;4131696;28;20252;-87
2023/08/30 03:49:46;;;;;;;2.30;1.00;;;14.90;99.90;;;;;;4131240;28;20181;-83
2023/08/30 03:51:48;;;;;;;2.50;1.75;;;14.90;99.90;;;;;;4131070;28;20806;-82
2023/08/30 03:53:49;;;;;;;3.47;0.98;;;14.80;99.90;;;;;;4131399;28;20177;-87
2023/08/30 03:55:50;;;;;;;1.50;1.13;;;14.60;99.90;;;;;;4131769;28;20207;-83
2023/08/30 03:57:51;;;;;;;2.13;1.20;;;14.60;99.90;;;;;;4131096;28;20185;-84
2023/08/30 03:59:52;;;;;;;4.13;1.83;;;14.50;99.90;;;;;;4114988;28;20170;-86
2023/08/30 04:01:53;;;;;;;2.15;1.10;;;14.40;99.90;;;;;;4130868;28;20204;-87
2023/08/30 04:03:54;;;;;;;3.25;1.20;;;14.50;99.90;;;;;;4130913;28;20336;-84
2023/08/30 04:05:57;;;;;;;1.85;1.10;;;14.50;99.90;;;;;;4131152;28;20205;-87
2023/08/30 04:07:58;;;;;;;1.80;1.00;;;14.50;99.90;;;;;;4130503;28;20232;-83
2023/08/30 04:09:59;;;;;;;1.77;1.10;;;14.40;99.90;;;;;;4130929;28;20189;-84
2023/08/30 04:12:00;;;;;;;3.45;1.98;;;14.30;99.90;;;;;;4130455;28;20220;-83
2023/08/30 04:14:01;;;;;;;2.15;0.85;;;14.40;99.90;;;;;;4132287;28;20177;-87
2023/08/30 04:16:01;;;;;;;1.02;0.93;;;14.40;99.90;;;;;;4131137;28;20177;-83
2023/08/30 04:18:04;;;;;;;1.45;1.05;;;14.50;99.90;;;;;;4130777;28;20183;-86
2023/08/30 04:20:05;;;;;;;1.73;0.98;;;14.60;99.90;;;;;;4131072;28;20174;-82
2023/08/30 04:22:07;;;;;;;2.53;1.35;;;14.50;99.90;;;;;;4130892;28;20193;-83
2023/08/30 04:24:09;;;;;;;3.53;1.60;;;14.40;99.90;;;;;;4131165;28;20178;-83
2023/08/30 04:26:09;;;;;;;2.10;1.00;;;14.40;99.90;;;;;;4130911;28;20736;-83
2023/08/30 04:28:10;;;;;;;1.92;1.20;;;14.40;99.90;;;;;;4114608;28;20166;-83
2023/08/30 04:30:12;;;;;;;1.92;1.15;;;14.40;99.90;;;;;;4132318;28;20180;-86
2023/08/30 04:32:12;;;;;;;2.35;1.02;;;14.50;99.90;;;;;;4114184;28;20209;-83
2023/08/30 04:34:13;;;;;;;2.47;0.98;;;14.40;99.90;;;;;;4130626;28;20170;-83
2023/08/30 04:36:14;;;;;;;1.73;0.95;;;14.30;99.90;;;;;;4114550;28;20264;-83
2023/08/30 04:38:15;;;;;;;2.97;1.17;;;14.30;99.90;;;;;;4130700;28;20192;-83
2023/08/30 04:40:16;;;;;;;2.40;1.38;;;14.30;99.90;;;;;;4114794;28;20174;-83
2023/08/30 04:42:18;;;;;;;1.42;0.90;;;14.20;99.90;;;;;;4131002;28;20193;-87
2023/08/30 04:44:24;;;;;;;2.58;0.98;;;14.20;99.90;;;;;;4130846;28;20711;-85
2023/08/30 04:46:24;;;;;;;1.42;0.93;;;14.30;99.90;;;;;;4114414;28;20217;-83
2023/08/30 04:48:26;;;;;;;5.57;1.30;;;14.30;99.90;;;;;;4114632;28;20565;-83
2023/08/30 04:50:27;;;;;;;1.10;0.75;;;14.30;99.90;;;;;;4130580;28;20181;-83
2023/08/30 04:52:28;;;;;;;2.38;1.55;;;14.20;99.90;;;;;;4130677;28;20276;-84
2023/08/30 04:54:31;;;;;;;1.92;1.05;;;14.30;99.90;;;;;;4130469;28;20181;-84
2023/08/30 04:56:32;;;;;;;1.77;0.85;;;14.20;99.90;;;;;;4114622;28;20783;-86
2023/08/30 04:58:33;;;;;;;1.75;1.33;;;14.30;99.90;;;;;;4146397;28;20188;-84
2023/08/30 05:00:34;;;;;;;2.08;1.02;;;14.20;99.90;;;;;;4130809;28;20169;-83
2023/08/30 05:02:35;;;;;;;3.08;1.15;;;14.30;99.90;;;;;;4115549;28;20205;-84
2023/08/30 05:04:40;;;;;;;1.38;0.90;;;14.30;99.90;;;;;;4118377;28;20307;-83
2023/08/30 05:06:40;;;;;;;2.03;1.20;;;14.30;99.90;;;;;;4133526;28;20675;-85
2023/08/30 05:08:41;;;;;;;1.70;1.15;;;14.20;99.90;;;;;;4117452;28;20217;-84
2023/08/30 05:10:43;;;;;;;2.28;1.17;;;14.20;99.90;;;;;;4133729;28;20173;-83
2023/08/30 05:12:47;;;;;;;4.85;1.63;;;14.30;99.90;;;;;;4133468;28;20193;-87
2023/08/30 05:14:48;;;;;;;3.67;1.33;;;14.20;99.90;;;;;;4133703;28;20170;-86
2023/08/30 05:16:50;;;;;;;2.80;1.55;;;14.20;99.90;;;;;;4117442;28;20180;-84
2023/08/30 05:18:50;;;;;;;2.42;1.50;;;14.20;99.90;;;;;;4133515;28;20695;-83
2023/08/30 05:20:51;;;;;;;5.20;1.20;;;14.20;99.90;;;;;;4117698;28;20190;-83
2023/08/30 05:22:52;;;;;;;2.78;1.05;;;14.20;99.90;;;;;;4149456;28;20200;-84
2023/08/30 05:24:53;;;;;;;1.25;0.90;;;14.10;99.90;;;;;;4117904;28;20284;-83
2023/08/30 05:26:54;;;;;;;1.80;1.05;;;14.10;99.90;;;;;;4117286;28;20276;-83
2023/08/30 05:28:56;;;;;;;1.70;0.85;;;14.10;99.90;;;;;;4149651;28;20172;-86
2023/08/30 05:30:57;;;;;;;2.33;1.20;;;14.20;99.90;;;;;;4117444;28;20185;-83
2023/08/30 05:33:17;;;;;;;3.33;1.23;;;14.10;99.90;;;;;;4133454;28;20571;-83
2023/08/30 05:35:27;;;;;;;3.83;2.03;;;14.10;99.90;;;;;;4118408;28;20201;-84
2023/08/30 05:37:46;;;;;;;1.73;1.05;;;14.10;99.90;;;;;;4134577;28;20228;-85
2023/08/30 05:39:53;;;;;;;5.78;2.05;;;14.20;99.90;;;;;;4117580;28;20170;-85
2023/08/30 05:41:54;;;;;;;1.92;1.55;;;14.20;99.90;;;;;;4117125;28;20256;-87
2023/08/30 05:43:55;;;;;;;1.25;0.85;;;14.20;99.90;;;;;;4117292;28;20166;-84
2023/08/30 05:46:01;;;;;;;6.78;1.75;;;14.20;99.90;;;;;;4134328;28;20216;-84
2023/08/30 05:48:02;;;;;;;2.45;1.45;;;14.30;99.90;;;;;;4133553;28;20185;-83
2023/08/30 05:50:05;;;;;;;15.05;1.88;;;14.40;99.90;;;;;;4117279;28;20175;-87
2023/08/30 05:52:06;;;;;;;2.65;1.70;;;14.40;99.90;;;;;;4133113;28;20280;-85
2023/08/30 05:54:06;;;;;;;3.30;1.77;;;14.40;99.90;;;;;;4133071;28;20170;-83
2023/08/30 05:56:07;;;;;;;2.75;1.55;;;14.40;99.90;;;;;;4132923;28;20209;-83
2023/08/30 05:58:08;;;;;;;4.95;1.58;;;14.50;99.90;;;;;;4133374;28;20532;-84
2023/08/30 06:00:10;;;;;;;5.80;1.75;;;14.40;99.90;;;;;;4132842;28;20176;-84
2023/08/30 06:02:16;;;;;;;2.92;1.55;;;14.50;99.90;;;;;;4133498;28;20189;-86
2023/08/30 06:04:17;;;;;;;6.78;2.30;;;14.60;99.90;;;;;;4117101;28;20178;-84
2023/08/30 06:06:18;;;;;;;7.47;2.83;;;14.60;99.90;;;;;;4132913;28;20173;-84
2023/08/30 06:08:19;;;;;;;8.80;2.85;;;14.80;99.90;;;;;;4116906;28;20194;-83
2023/08/30 06:10:20;;;;;;;6.13;2.67;;;14.60;99.90;;;;;;4133145;28;20220;-87
2023/08/30 06:12:20;;;;;;;9.48;2.85;;;14.50;99.90;;;;;;4116003;28;20600;-83
2023/08/30 06:14:21;;;;;;;5.75;2.45;;;14.40;99.90;;;;;;4131979;28;20632;-84
2023/08/30 06:16:22;;;;;;;7.45;2.53;;;14.30;99.90;;;;;;4132370;28;20218;-84
2023/08/30 06:18:23;;;;;;;5.80;2.45;;;14.40;99.90;;;;;;4120470;28;20204;-84
2023/08/30 06:20:24;;;;;;;5.78;2.30;;;14.40;99.90;;;;;;4117471;28;20261;-86
2023/08/30 06:22:25;;;;;;;5.45;1.65;;;14.50;99.90;;;;;;4117437;28;20233;-83
2023/08/30 06:24:25;;;;;;;4.95;2.15;;;14.50;99.90;;;;;;4101442;28;20231;-88
2023/08/30 06:26:26;;;;;;;5.70;1.85;;;14.60;99.90;;;;;;4101142;29;20182;-87
2023/08/30 06:28:27;;;;;;;7.93;2.83;;;14.60;99.90;;;;;;4116999;28;20657;-83
2023/08/30 06:30:29;;;;;;;6.90;1.90;;;14.70;99.90;;;;;;4117207;28;20209;-83
2023/08/30 06:32:30;;;;;;;7.10;2.25;;;14.60;99.90;;;;;;4100823;28;20665;-82
2023/08/30 06:34:30;;;;;;;5.38;1.67;;;14.60;99.90;;;;;;4117229;28;20181;-83
2023/08/30 06:36:32;;;;;;;10.25;2.28;;;14.70;99.90;;;;;;4101342;28;20665;-83
2023/08/30 06:38:33;;;;;;;2.42;1.10;;;14.60;99.90;;;;;;4101284;28;20210;-84
2023/08/30 06:40:33;;;;;;;4.60;1.95;;;14.60;99.90;;;;;;4117606;28;20273;-83
2023/08/30 06:42:34;;;;;;;3.10;1.75;;;14.60;99.90;;;;;;4134151;28;20200;-83
2023/08/30 06:44:35;;;;;;;4.70;2.05;;;14.60;99.90;;;;;;4116654;28;20178;-84
2023/08/30 06:46:37;;;;;;;5.07;2.13;;;14.70;99.90;;;;;;4116873;28;20186;-83
2023/08/30 06:48:38;;;;;;;4.30;1.67;;;14.80;99.90;;;;;;4134336;28;20161;-83
2023/08/30 06:50:39;;;;;;;1.58;1.00;;;14.80;99.90;;;;;;4100691;29;20638;-83
2023/08/30 06:52:39;;;;;;;2.92;1.38;;;14.80;99.90;;;;;;4133911;28;20220;-87
2023/08/30 06:54:40;;;;;;;2.65;1.63;;;14.80;99.90;;;;;;4116751;28;20174;-83
2023/08/30 06:56:41;;;;;;;4.10;1.23;;;14.70;99.90;;;;;;4116904;28;20205;-88
2023/08/30 06:58:42;;;;;;;3.08;1.30;;;14.70;99.90;;;;;;4116547;28;20174;-86
2023/08/30 07:00:42;;;;;;;2.05;0.60;;;14.70;99.90;;;;;;4116844;28;20209;-87
2023/08/30 07:02:45;;;;;;;3.67;1.27;;;14.80;99.90;;;;;;4116854;28;20186;-84
2023/08/30 07:04:46;;;;;;;2.67;1.20;;;15.00;99.90;;;;;;4116776;28;20189;-83
2023/08/30 07:06:47;;;;;;;1.48;0.85;;;15.00;99.90;;;;;;4116228;28;20182;-87
2023/08/30 07:08:48;;;;;;;3.38;1.23;;;15.10;99.90;;;;;;4117475;28;20202;-88
2023/08/30 07:10:49;;;;;;;1.90;1.20;;;15.00;99.90;;;;;;4116755;28;20181;-88
2023/08/30 07:12:50;;;;;;;2.72;1.00;;;15.10;99.90;;;;;;4116789;28;20182;-88
2023/08/30 07:14:50;;;;;;;1.40;0.73;;;15.40;99.90;;;;;;4116840;28;20201;-88
2023/08/30 07:16:51;;;;;;;1.40;1.08;;;15.40;99.90;;;;;;4134208;28;20268;-87
2023/08/30 07:18:52;;;;;;;2.45;0.80;;;15.40;99.90;;;;;;4100857;28;20175;-84
2023/08/30 07:20:53;;;;;;;1.65;0.75;;;15.50;99.90;;;;;;4116264;28;20233;-84
2023/08/30 07:22:53;;;;;;;0.98;0.75;;;15.40;99.90;;;;;;4115794;28;20232;-83
2023/08/30 07:24:54;;;;;;;1.98;0.98;;;15.40;99.90;;;;;;4114832;28;20261;-83
2023/08/30 07:26:55;;;;;;;1.17;0.60;;;15.60;99.90;;;;;;4115806;28;20600;-83
2023/08/30 07:28:56;;;;;;;1.25;0.70;;;15.40;99.90;;;;;;4100116;29;20167;-82
2023/08/30 07:31:04;;;;;;;2.33;0.88;;;15.50;99.90;;;;;;4116093;28;20652;-89
2023/08/30 07:33:05;;;;;;;1.98;0.82;;;15.70;99.90;;;;;;4100672;28;20238;-88
2023/08/30 07:35:06;;;;;;;2.10;1.02;;;15.80;99.90;;;;;;4116696;28;20221;-86
2023/08/30 07:37:19;;;;;;;1.77;0.93;;;15.70;99.90;;;;;;4100957;29;20183;-84
2023/08/30 07:39:20;;;;;;;2.40;0.85;;;15.80;99.90;;;;;;4116632;28;20283;-88
2023/08/30 07:41:20;;;;;;;2.60;0.82;;;15.70;99.90;;;;;;4116467;28;20620;-84
2023/08/30 07:43:21;;;;;;;2.30;0.85;;;15.60;99.90;;;;;;4105630;28;20177;-83
2023/08/30 07:45:22;;;;;;;1.40;0.75;;;15.80;99.90;;;;;;4115850;28;20170;-88
2023/08/30 07:47:22;;;;;;;1.95;0.80;;;15.70;99.90;;;;;;4115983;28;20174;-84
2023/08/30 07:49:23;;;;;;;2.03;0.60;;;15.70;99.90;;;;;;4131899;28;20235;-88
2023/08/30 07:51:24;;;;;;;1.25;1.08;;;15.70;99.90;;;;;;4115714;28;20186;-84
2023/08/30 07:53:24;;;;;;;1.20;0.77;;;15.90;99.90;;;;;;4132688;28;20173;-83
2023/08/30 07:55:25;;;;;;;1.98;0.90;;;15.80;99.90;;;;;;4131907;28;20221;-87
2023/08/30 07:57:26;;;;;;;0.57;0.40;;;15.90;99.90;;;;;;4116126;28;20170;-84
2023/08/30 07:59:27;;;;;;;0.98;0.75;;;16.00;99.90;;;;;;4133003;28;20205;-83
2023/08/30 08:01:28;;;;;;;1.10;0.50;;;16.20;99.90;;;;;;4132892;28;20686;-84
2023/08/30 08:03:29;;;;;;;0.90;0.60;;;16.30;99.90;;;;;;4115451;28;20181;-84
2023/08/30 08:05:30;;;;;;;0.90;0.73;;;16.40;99.90;;;;;;4131555;28;20189;-84
2023/08/30 08:07:31;;;;;;;1.20;0.50;;;16.40;99.90;;;;;;4131338;28;20705;-84
2023/08/30 08:09:32;;;;;;;1.10;0.80;;;16.40;99.90;;;;;;4115298;28;20326;-84
2023/08/30 08:11:33;;;;;;;0.80;0.60;;;16.40;99.90;;;;;;4131463;28;20200;-84
2023/08/30 08:13:33;;;;;;;1.52;0.85;;;16.20;99.90;;;;;;4131577;28;20169;-84
2023/08/30 08:15:34;;;;;;;2.00;0.85;;;16.30;99.90;;;;;;4115021;28;20675;-85
2023/08/30 08:17:35;;;;;;;1.27;0.75;;;16.20;99.90;;;;;;4148489;28;20165;-85
2023/08/30 08:19:39;;;;;;;4.50;1.00;;;16.20;99.90;;;;;;4115390;28;20205;-83
2023/08/30 08:21:40;;;;;;;0.63;0.43;;;16.10;99.90;;;;;;4131010;28;20271;-83
2023/08/30 08:23:41;;;;;;;11.23;1.25;;;16.40;99.90;;;;;;4131741;28;20178;-84
2023/08/30 08:25:41;;;;;;;1.95;1.00;;;16.50;99.90;;;;;;4131435;28;20722;-84
2023/08/30 08:27:42;;;;;;;1.02;0.70;;;16.70;99.90;;;;;;4115241;28;20170;-87
2023/08/30 08:29:43;;;;;;;1.63;0.82;;;17.00;99.90;;;;;;4131694;28;20185;-83
2023/08/30 08:31:44;;;;;;;1.48;0.90;;;17.20;99.90;;;;;;4131562;28;20193;-89
2023/08/30 08:33:44;;;;;;;0.73;0.68;;;17.20;99.90;;;;;;4115235;28;20177;-84
2023/08/30 08:35:47;;;;;;;1.90;1.02;;;17.30;99.90;;;;;;4148656;28;20220;-84
2023/08/30 08:37:48;;;;;;;2.42;1.08;;;17.40;99.90;;;;;;4131169;28;20173;-83
2023/08/30 08:39:50;;;;;;;1.98;1.10;;;17.40;99.90;;;;;;4131910;28;20169;-84
2023/08/30 08:41:54;;;;;;;1.65;0.80;;;17.60;99.90;;;;;;4130294;28;20181;-86
2023/08/30 08:43:55;;;;;;;1.67;1.00;;;17.60;99.90;;;;;;4114839;28;20746;-85
2023/08/30 08:46:06;;;;;;;2.55;1.00;;;17.80;99.90;;;;;;4130394;28;20166;-86
2023/08/30 08:48:07;;;;;;;1.58;1.00;;;17.80;99.90;;;;;;4130138;28;20649;-83
2023/08/30 08:50:09;;;;;;;1.73;1.02;;;17.80;99.90;;;;;;4130556;28;20162;-84
2023/08/30 08:52:11;;;;;;;1.00;0.90;;;17.90;99.90;;;;;;4114371;28;20202;-86
2023/08/30 08:54:13;;;;;;;1.73;1.00;;;17.90;99.90;;;;;;4130267;28;20672;-88
2023/08/30 08:56:14;;;;;;;4.47;1.50;;;17.80;99.90;;;;;;4131637;28;20615;-84
2023/08/30 08:58:15;;;;;;;4.65;1.27;;;17.80;99.90;;;;;;4129652;28;20173;-85
2023/08/30 09:00:16;;;;;;;3.45;1.35;;;17.70;99.90;;;;;;4130654;28;20185;-88
2023/08/30 09:02:17;;;;;;;2.28;1.13;;;17.70;99.90;;;;;;4130703;28;20266;-88
2023/08/30 09:04:19;;;;;;;3.08;1.50;;;17.90;99.90;;;;;;4130491;28;20177;-88
2023/08/30 09:06:21;;;;;;;1.88;0.93;;;17.90;99.90;;;;;;4130321;28;20248;-86
2023/08/30 09:08:21;;;;;;;1.48;0.90;;;18.00;99.90;;;;;;4130171;28;20555;-83
2023/08/30 09:10:23;;;;;;;2.00;1.42;;;18.10;99.90;;;;;;4113889;28;20174;-89
2023/08/30 09:12:23;;;;;;;1.73;1.30;;;18.20;99.90;;;;;;4145711;28;20193;-84
2023/08/30 09:14:24;;;;;;;2.58;1.52;;;18.40;99.90;;;;;;4129805;28;20169;-84
2023/08/30 09:16:25;;;;;;;2.00;1.40;;;18.30;99.90;;;;;;4129697;28;20217;-85
2023/08/30 09:18:27;;;;;;;3.08;1.40;;;18.40;99.90;;;;;;4129943;28;20174;-85
2023/08/30 09:20:28;;;;;;;2.60;1.35;;;18.20;99.90;;;;;;4113124;28;20330;-85
2023/08/30 09:22:36;;;;;;;2.47;1.45;;;18.20;99.90;;;;;;4129061;28;20538;-84
2023/08/30 09:24:39;;;;;;;2.75;1.35;;;18.20;99.90;;;;;;4128640;28;20639;-84
2023/08/30 09:26:50;;;;;;;2.50;1.23;;;18.50;99.90;;;;;;4128857;28;20170;-85
2023/08/30 09:28:51;;;;;;;11.50;1.95;;;18.50;99.90;;;;;;4129313;28;20676;-85
2023/08/30 09:30:52;;;;;;;2.30;1.15;;;18.40;99.90;;;;;;4128952;28;20276;-84
2023/08/30 09:32:53;;;;;;;2.88;1.33;;;18.20;99.90;;;;;;4128453;28;20198;-88
2023/08/30 09:34:55;;;;;;;2.78;1.38;;;18.20;99.90;;;;;;4129275;28;20271;-84
2023/08/30 09:36:55;;;;;;;1.88;1.13;;;18.30;99.90;;;;;;4128930;28;20181;-84
2023/08/30 09:38:58;;;;;;;1.77;1.20;;;18.20;99.90;;;;;;4112887;28;20190;-84
2023/08/30 09:41:05;;;;;;;3.67;1.58;;;18.00;99.90;;;;;;4112701;28;20550;-84
2023/08/30 09:43:07;;;;;;;2.45;1.20;;;17.70;99.90;;;;;;4129949;28;20181;-85
2023/08/30 09:45:23;;;;;;;1.92;1.10;;;17.80;99.90;;;;;;4128633;28;20170;-85
2023/08/30 09:47:28;;;;;;;2.42;1.20;;;17.70;99.90;;;;;;4112528;28;20207;-84
2023/08/30 09:49:30;;;;;;;3.70;2.03;;;17.70;99.90;;;;;;4115390;28;20182;-85
2023/08/30 09:51:33;;;;;;;2.55;1.55;;;17.80;99.90;;;;;;4115326;28;20652;-85
2023/08/30 09:53:40;;;;;;;2.08;1.30;;;17.90;99.90;;;;;;4133315;28;20186;-84
2023/08/30 09:55:42;;;;;;;2.17;1.27;;;17.80;99.90;;;;;;4115408;28;20213;-87
2023/08/30 09:57:44;;;;;;;2.28;1.23;;;17.80;99.90;;;;;;4131991;28;20198;-84
2023/08/30 09:59:45;;;;;;;4.38;1.48;;;17.80;99.90;;;;;;4132997;28;20165;-84
2023/08/30 10:01:52;;;;;;;3.05;1.40;;;18.10;99.90;;;;;;4115164;28;20217;-84
2023/08/30 10:03:54;;;;;;;3.47;1.70;;;18.40;99.90;;;;;;4115782;28;20548;-87
2023/08/30 10:05:56;;;;;;;2.85;1.58;;;18.80;99.90;;;;;;4131584;28;20659;-84
2023/08/30 10:07:58;;;;;;;4.80;1.88;;;19.30;99.90;;;;;;4115377;28;20198;-88
2023/08/30 10:09:59;;;;;;;2.50;1.52;;;19.70;99.90;;;;;;4115512;28;20222;-86
2023/08/30 10:12:03;;;;;;;1.80;1.17;;;20.20;99.90;;;;;;4115696;28;20714;-84
2023/08/30 10:14:05;;;;;;;1.95;1.45;;;20.50;99.90;;;;;;4115354;28;20261;-84
2023/08/30 10:16:06;;;;;;;2.90;1.60;;;20.80;99.90;;;;;;4131682;28;20205;-84
2023/08/30 10:18:09;;;;;;;1.70;1.13;;;20.70;99.90;;;;;;4131813;28;20173;-86
2023/08/30 10:20:11;;;;;;;1.75;1.25;;;20.70;99.90;;;;;;4132252;28;20205;-89
2023/08/30 10:22:15;;;;;;;3.10;1.20;;;20.60;99.90;;;;;;4133373;28;20193;-84
2023/08/30 10:24:20;;;;;;;1.95;1.13;;;20.50;99.90;;;;;;4132668;28;20182;-88
2023/08/30 10:26:22;;;;;;;2.90;1.52;;;20.70;99.90;;;;;;4132616;28;20659;-90
2023/08/30 10:28:24;;;;;;;2.33;1.23;;;20.80;99.90;;;;;;4132021;28;20260;-86
2023/08/30 10:30:25;;;;;;;1.98;1.17;;;20.80;99.90;;;;;;4132222;28;20228;-84
2023/08/30 10:32:26;;;;;;;3.90;1.50;;;20.90;99.90;;;;;;4116238;28;20198;-85
2023/08/30 10:34:33;;;;;;;2.50;0.90;;;20.90;99.90;;;;;;4132869;28;20253;-87